Time;durP1;ratioP1;P1;durP2;ratioP2;P2;SDS_P1;SDS_P2;PMS_P1;PMS_P2;Temp;Humidity;BMP_temperature;BMP_pressure;BME280_temperature;BME280_humidity;BME280_pressure;Samples;Min_cycle;Max_cycle;Signal;HPM_P1;HPM_P2
2022/11/07 00:01:09;;;;;;;7.15;3.85;;;;;;;;;;5054066;28;20028;-75
2022/11/07 00:03:35;;;;;;;8.27;4.05;;;;;;;;;;5062204;28;20021;-75
2022/11/07 00:06:01;;;;;;;7.25;4.22;;;;;;;;;;5064073;28;20086;-75
2022/11/07 00:08:30;;;;;;;7.55;3.90;;;;;;;;;;5058838;28;20060;-75
2022/11/07 00:10:56;;;;;;;9.35;4.15;;;;;;;;;;5059439;28;20025;-74
2022/11/07 00:13:22;;;;;;;9.57;4.13;;;;;;;;;;5059113;28;20021;-73
2022/11/07 00:15:48;;;;;;;7.57;3.92;;;;;;;;;;5061697;28;20025;-75
2022/11/07 00:18:14;;;;;;;7.00;4.20;;;;;;;;;;5060120;28;20071;-75
2022/11/07 00:20:40;;;;;;;6.65;4.43;;;;;;;;;;5051664;28;20095;-75
2022/11/07 00:23:06;;;;;;;10.27;4.55;;;;;;;;;;5034087;28;20031;-75
2022/11/07 00:25:32;;;;;;;7.70;4.35;;;;;;;;;;5052048;28;20028;-76
2022/11/07 00:27:58;;;;;;;6.78;4.20;;;;;;;;;;5062062;28;20389;-75
2022/11/07 00:30:24;;;;;;;7.97;4.45;;;;;;;;;;5049385;28;20038;-75
2022/11/07 00:32:50;;;;;;;10.48;5.20;;;;;;;;;;5059736;28;20035;-75
2022/11/07 00:35:16;;;;;;;10.30;4.75;;;;;;;;;;5034280;28;20025;-75
2022/11/07 00:37:42;;;;;;;10.00;5.13;;;;;;;;;;5051815;28;20013;-75
2022/11/07 00:40:08;;;;;;;8.20;4.35;;;;;;;;;;5051794;28;20505;-76
2022/11/07 00:42:34;;;;;;;8.93;4.63;;;;;;;;;;5051752;28;20071;-75
2022/11/07 00:45:00;;;;;;;10.27;4.95;;;;;;;;;;5033703;28;20432;-76
2022/11/07 00:47:26;;;;;;;16.70;5.40;;;;;;;;;;5051116;28;20061;-75
2022/11/07 00:49:52;;;;;;;9.13;5.18;;;;;;;;;;5051534;28;20078;-75
2022/11/07 00:52:18;;;;;;;10.02;5.05;;;;;;;;;;5051801;28;20029;-75
2022/11/07 00:54:44;;;;;;;11.25;4.82;;;;;;;;;;5055093;28;20021;-75
2022/11/07 00:57:10;;;;;;;11.55;4.97;;;;;;;;;;5054912;28;20025;-75
2022/11/07 00:59:36;;;;;;;12.35;4.53;;;;;;;;;;5055178;28;20036;-75
2022/11/07 01:02:01;;;;;;;12.98;4.88;;;;;;;;;;5055289;28;20063;-75
2022/11/07 01:07:12;;;;;;;10.40;4.20;;;;;;;;;;5054712;28;20079;-75
2022/11/07 01:09:38;;;;;;;10.57;4.75;;;;;;;;;;5054941;28;20025;-75
2022/11/07 01:12:04;;;;;;;11.18;4.28;;;;;;;;;;5054742;28;20065;-75
2022/11/07 01:14:30;;;;;;;10.30;4.28;;;;;;;;;;5054677;28;20058;-75
2022/11/07 01:16:56;;;;;;;9.25;4.30;;;;;;;;;;5054528;28;20104;-75
2022/11/07 01:19:22;;;;;;;20.15;4.78;;;;;;;;;;5054672;28;20114;-75
2022/11/07 01:21:48;;;;;;;7.20;4.30;;;;;;;;;;5054611;28;20029;-75
2022/11/07 01:24:15;;;;;;;13.75;4.20;;;;;;;;;;5054456;28;20036;-75
2022/11/07 01:26:41;;;;;;;10.10;4.63;;;;;;;;;;5077254;22;20036;-74
2022/11/07 01:29:08;;;;;;;15.20;4.60;;;;;;;;;;5076060;28;20028;-74
2022/11/07 01:31:33;;;;;;;12.43;5.13;;;;;;;;;;5075661;28;20511;-73
2022/11/07 01:34:00;;;;;;;8.95;3.88;;;;;;;;;;5074383;28;20111;-74
2022/11/07 01:36:26;;;;;;;13.20;4.40;;;;;;;;;;5073557;28;20354;-73
2022/11/07 01:38:52;;;;;;;8.07;3.90;;;;;;;;;;5074781;28;20105;-75
2022/11/07 01:41:21;;;;;;;8.65;3.92;;;;;;;;;;5075133;28;20381;-74
2022/11/07 01:43:53;;;;;;;13.07;4.35;;;;;;;;;;5074051;28;20028;-75
2022/11/07 01:46:19;;;;;;;10.30;4.10;;;;;;;;;;5074824;28;20021;-74
2022/11/07 01:48:47;;;;;;;12.00;4.40;;;;;;;;;;5075325;28;20029;-74
2022/11/07 01:51:14;;;;;;;11.35;5.25;;;;;;;;;;5075234;28;20032;-74
2022/11/07 01:53:40;;;;;;;11.15;4.95;;;;;;;;;;5075121;28;20027;-74
2022/11/07 01:56:09;;;;;;;10.57;4.10;;;;;;;;;;5074714;28;20044;-73
2022/11/07 01:58:35;;;;;;;8.27;4.05;;;;;;;;;;5074775;28;20017;-73
2022/11/07 02:01:01;;;;;;;9.68;4.25;;;;;;;;;;5074453;28;20029;-75
2022/11/07 02:03:27;;;;;;;7.40;3.78;;;;;;;;;;5074705;28;20078;-74
2022/11/07 02:05:55;;;;;;;11.60;3.78;;;;;;;;;;5074733;28;20033;-73
2022/11/07 02:08:22;;;;;;;7.35;3.80;;;;;;;;;;5075237;28;20031;-74
2022/11/07 02:10:48;;;;;;;10.15;4.10;;;;;;;;;;5091064;28;20024;-74
2022/11/07 02:13:17;;;;;;;7.88;4.38;;;;;;;;;;5093914;28;20035;-73
2022/11/07 02:15:43;;;;;;;8.57;4.13;;;;;;;;;;5091225;28;20020;-75
2022/11/07 02:18:10;;;;;;;7.82;4.07;;;;;;;;;;5075424;28;20027;-74
2022/11/07 02:20:35;;;;;;;9.75;4.28;;;;;;;;;;5074899;28;20037;-75
2022/11/07 02:23:10;;;;;;;8.40;4.38;;;;;;;;;;5074262;28;20036;-73
2022/11/07 02:25:36;;;;;;;18.42;4.00;;;;;;;;;;5073937;28;20025;-72
2022/11/07 02:28:05;;;;;;;9.15;4.05;;;;;;;;;;5072736;28;20378;-73
2022/11/07 02:30:33;;;;;;;15.50;4.32;;;;;;;;;;5073769;28;20039;-72
2022/11/07 02:32:59;;;;;;;10.68;3.95;;;;;;;;;;5073709;28;20381;-71
2022/11/07 02:35:34;;;;;;;9.75;4.20;;;;;;;;;;5072425;28;20036;-72
2022/11/07 02:38:01;;;;;;;8.98;3.88;;;;;;;;;;5073806;28;20016;-74
2022/11/07 02:40:28;;;;;;;12.50;4.30;;;;;;;;;;5073847;28;20086;-73
2022/11/07 02:42:54;;;;;;;9.10;4.43;;;;;;;;;;5073840;28;20029;-72
2022/11/07 02:45:30;;;;;;;11.63;4.43;;;;;;;;;;5073838;28;20032;-71
2022/11/07 02:47:56;;;;;;;13.65;3.75;;;;;;;;;;5072188;28;20511;-73
2022/11/07 02:50:22;;;;;;;11.80;3.95;;;;;;;;;;5072401;28;20119;-72
2022/11/07 02:52:48;;;;;;;11.18;4.38;;;;;;;;;;5073650;28;20473;-72
2022/11/07 02:55:14;;;;;;;10.48;3.90;;;;;;;;;;5072526;28;20024;-73
2022/11/07 02:57:40;;;;;;;11.15;3.97;;;;;;;;;;5073941;28;20020;-73
2022/11/07 03:00:07;;;;;;;13.60;4.20;;;;;;;;;;5074446;28;20104;-73
2022/11/07 03:02:33;;;;;;;14.18;4.22;;;;;;;;;;5073531;28;20032;-71
2022/11/07 03:04:59;;;;;;;9.38;3.65;;;;;;;;;;5073697;28;20031;-73
2022/11/07 03:07:25;;;;;;;11.38;4.00;;;;;;;;;;5074433;28;20055;-72
2022/11/07 03:09:51;;;;;;;11.25;3.65;;;;;;;;;;5074686;28;20044;-74
2022/11/07 03:12:18;;;;;;;13.57;3.72;;;;;;;;;;5073801;28;20145;-72
2022/11/07 03:14:44;;;;;;;12.15;3.47;;;;;;;;;;5073619;28;20082;-73
2022/11/07 03:17:10;;;;;;;12.02;3.35;;;;;;;;;;5076067;28;20502;-72
2022/11/07 03:19:36;;;;;;;16.17;3.70;;;;;;;;;;5073844;28;20550;-71
2022/11/07 03:22:02;;;;;;;15.57;4.43;;;;;;;;;;5074787;28;20032;-74
2022/11/07 03:24:28;;;;;;;10.98;3.92;;;;;;;;;;5089836;28;20040;-74
2022/11/07 03:26:54;;;;;;;15.80;3.75;;;;;;;;;;5090914;28;20443;-72
2022/11/07 03:29:20;;;;;;;7.85;3.33;;;;;;;;;;5091838;28;20051;-72
2022/11/07 03:31:46;;;;;;;11.02;3.78;;;;;;;;;;5076710;28;20032;-74
2022/11/07 03:34:12;;;;;;;10.57;4.25;;;;;;;;;;5073084;28;20035;-74
2022/11/07 03:36:38;;;;;;;18.23;3.40;;;;;;;;;;5072614;28;20039;-72
2022/11/07 03:39:04;;;;;;;15.70;3.65;;;;;;;;;;5073522;28;20532;-70
2022/11/07 03:41:30;;;;;;;14.30;3.65;;;;;;;;;;5073754;28;20032;-72
2022/11/07 03:43:55;;;;;;;14.05;3.75;;;;;;;;;;5078971;28;20040;-72
2022/11/07 03:46:21;;;;;;;8.98;3.08;;;;;;;;;;5075486;28;20024;-72
2022/11/07 03:48:47;;;;;;;12.52;3.50;;;;;;;;;;5074779;28;20032;-73
2022/11/07 03:51:13;;;;;;;13.38;3.97;;;;;;;;;;5072594;28;20029;-73
2022/11/07 03:53:39;;;;;;;16.83;3.38;;;;;;;;;;5072704;28;20063;-71
2022/11/07 03:56:06;;;;;;;7.38;3.10;;;;;;;;;;5071217;28;20028;-73
2022/11/07 03:58:32;;;;;;;13.82;3.25;;;;;;;;;;5072986;28;20032;-73
2022/11/07 04:00:58;;;;;;;10.65;3.55;;;;;;;;;;5071682;28;20478;-73
2022/11/07 04:03:24;;;;;;;13.65;3.85;;;;;;;;;;5072632;28;20481;-72
2022/11/07 04:05:50;;;;;;;13.05;3.38;;;;;;;;;;5072074;28;20028;-72
2022/11/07 04:08:16;;;;;;;13.50;3.47;;;;;;;;;;5071041;28;20024;-73
2022/11/07 04:10:42;;;;;;;12.40;3.88;;;;;;;;;;5072911;28;20350;-72
2022/11/07 04:18:38;;;;;;;12.10;3.80;;;;;;;;;;5073229;28;20032;-74
2022/11/07 04:21:04;;;;;;;18.30;3.60;;;;;;;;;;5073017;28;20449;-73
2022/11/07 04:23:29;;;;;;;11.45;3.78;;;;;;;;;;5073604;28;20463;-73
2022/11/07 04:28:40;;;;;;;14.65;3.35;;;;;;;;;;5076376;28;20036;-72
2022/11/07 04:31:06;;;;;;;24.45;4.20;;;;;;;;;;5076538;28;20029;-73
2022/11/07 04:33:32;;;;;;;11.57;3.25;;;;;;;;;;5076273;28;20036;-72
2022/11/07 04:35:58;;;;;;;15.00;4.55;;;;;;;;;;5074819;28;20032;-73
2022/11/07 04:38:24;;;;;;;12.70;3.15;;;;;;;;;;5077196;28;20082;-72
2022/11/07 04:40:53;;;;;;;14.63;3.55;;;;;;;;;;5077042;28;20028;-73
2022/11/07 04:43:19;;;;;;;16.35;3.58;;;;;;;;;;5079291;28;20052;-73
2022/11/07 04:45:48;;;;;;;16.08;3.55;;;;;;;;;;5085812;28;20039;-73
2022/11/07 04:48:15;;;;;;;15.55;3.30;;;;;;;;;;5087845;28;20028;-73
2022/11/07 04:50:41;;;;;;;10.80;3.20;;;;;;;;;;5078320;28;20505;-73
2022/11/07 04:53:07;;;;;;;15.23;3.75;;;;;;;;;;5078212;28;20058;-71
2022/11/07 04:55:33;;;;;;;15.10;3.15;;;;;;;;;;5076023;28;20032;-71
2022/11/07 04:57:59;;;;;;;16.38;4.03;;;;;;;;;;5074769;28;20025;-72
2022/11/07 05:00:25;;;;;;;13.95;2.90;;;;;;;;;;5077105;28;20033;-71
2022/11/07 05:02:51;;;;;;;12.65;2.92;;;;;;;;;;5076669;28;20031;-71
2022/11/07 05:05:17;;;;;;;12.20;3.15;;;;;;;;;;5085358;28;20016;-72
2022/11/07 05:07:44;;;;;;;12.18;3.03;;;;;;;;;;5089322;28;20428;-71
2022/11/07 05:10:17;;;;;;;13.20;3.25;;;;;;;;;;5088347;28;20054;-72
2022/11/07 05:12:43;;;;;;;15.65;3.72;;;;;;;;;;5084440;28;20035;-73
2022/11/07 05:15:09;;;;;;;20.10;3.17;;;;;;;;;;5082199;28;20017;-73
2022/11/07 05:17:35;;;;;;;18.30;3.15;;;;;;;;;;5081563;28;20027;-72
2022/11/07 05:20:01;;;;;;;22.55;3.67;;;;;;;;;;5082916;28;20043;-74
2022/11/07 05:25:11;;;;;;;17.38;3.80;;;;;;;;;;5076920;28;20397;-72
2022/11/07 05:27:37;;;;;;;14.65;3.10;;;;;;;;;;5074441;28;20028;-73
2022/11/07 05:30:04;;;;;;;21.58;3.58;;;;;;;;;;5075632;28;20123;-74
2022/11/07 05:32:30;;;;;;;12.05;3.10;;;;;;;;;;5075920;28;20397;-72
2022/11/07 05:34:56;;;;;;;15.70;3.50;;;;;;;;;;5075817;28;20016;-73
2022/11/07 05:37:22;;;;;;;15.10;3.88;;;;;;;;;;5075157;28;20493;-72
2022/11/07 05:39:48;;;;;;;11.68;3.40;;;;;;;;;;5075287;28;20503;-73
2022/11/07 05:42:13;;;;;;;11.38;3.53;;;;;;;;;;5075620;28;20386;-71
2022/11/07 05:44:39;;;;;;;14.55;3.72;;;;;;;;;;5075781;28;20024;-72
2022/11/07 05:47:05;;;;;;;14.52;3.08;;;;;;;;;;5077955;28;20021;-72
2022/11/07 05:49:31;;;;;;;19.42;3.72;;;;;;;;;;5084802;28;20043;-71
2022/11/07 05:51:57;;;;;;;15.23;3.35;;;;;;;;;;5088486;28;20040;-74
2022/11/07 05:54:26;;;;;;;13.57;3.08;;;;;;;;;;5086771;28;20033;-73
2022/11/07 05:56:54;;;;;;;19.58;5.53;;;;;;;;;;5083195;28;20024;-72
2022/11/07 05:59:20;;;;;;;17.73;6.00;;;;;;;;;;5095567;28;20012;-73
2022/11/07 06:01:46;;;;;;;19.80;3.80;;;;;;;;;;5095007;28;20036;-74
2022/11/07 06:04:12;;;;;;;8.48;2.70;;;;;;;;;;5094080;28;20020;-73
2022/11/07 06:06:38;;;;;;;18.92;3.83;;;;;;;;;;5084088;28;20143;-72
2022/11/07 06:09:04;;;;;;;14.35;3.03;;;;;;;;;;5075715;28;20033;-73
2022/11/07 06:11:31;;;;;;;24.17;6.82;;;;;;;;;;5075667;28;20024;-72
2022/11/07 06:13:57;;;;;;;16.50;3.95;;;;;;;;;;5075514;28;20028;-72
2022/11/07 06:16:23;;;;;;;15.38;3.47;;;;;;;;;;5076216;28;20020;-72
2022/11/07 06:18:49;;;;;;;21.92;3.80;;;;;;;;;;5076544;28;20036;-72
2022/11/07 06:21:15;;;;;;;13.18;3.13;;;;;;;;;;5075453;28;20028;-74
2022/11/07 06:23:41;;;;;;;23.00;3.83;;;;;;;;;;5076787;28;20063;-72
2022/11/07 06:26:09;;;;;;;17.35;4.35;;;;;;;;;;5075449;28;20411;-71
2022/11/07 06:28:35;;;;;;;18.02;3.78;;;;;;;;;;5075494;28;20020;-75
2022/11/07 06:31:01;;;;;;;15.85;3.80;;;;;;;;;;5076147;28;20077;-71
2022/11/07 06:33:28;;;;;;;13.57;4.05;;;;;;;;;;5076570;28;20420;-72
2022/11/07 06:35:55;;;;;;;18.35;4.40;;;;;;;;;;5075458;28;20028;-75
2022/11/07 06:38:20;;;;;;;19.65;3.90;;;;;;;;;;5075112;28;20031;-74
2022/11/07 06:40:47;;;;;;;25.15;4.35;;;;;;;;;;5076126;28;20398;-74
2022/11/07 06:43:14;;;;;;;18.63;4.07;;;;;;;;;;5075625;28;20028;-73
2022/11/07 06:45:41;;;;;;;18.50;3.83;;;;;;;;;;5074551;28;20474;-71
2022/11/07 06:48:07;;;;;;;18.30;3.92;;;;;;;;;;5078649;28;20024;-73
2022/11/07 06:50:33;;;;;;;22.05;3.70;;;;;;;;;;5078454;28;20102;-74
2022/11/07 06:53:03;;;;;;;19.98;3.97;;;;;;;;;;5078477;28;20051;-73
2022/11/07 06:55:29;;;;;;;20.02;4.20;;;;;;;;;;5078314;28;20025;-72
2022/11/07 06:57:59;;;;;;;20.65;3.85;;;;;;;;;;5076392;28;20027;-72
2022/11/07 07:00:26;;;;;;;18.52;4.60;;;;;;;;;;5074889;28;20044;-71
2022/11/07 07:02:51;;;;;;;24.63;4.53;;;;;;;;;;5074507;28;20024;-73
2022/11/07 07:05:17;;;;;;;18.10;4.15;;;;;;;;;;5075524;28;20060;-73
2022/11/07 07:07:43;;;;;;;13.18;3.80;;;;;;;;;;5074361;28;20043;-72
2022/11/07 07:10:09;;;;;;;19.00;4.25;;;;;;;;;;5074834;28;20107;-72
2022/11/07 07:12:35;;;;;;;19.88;4.47;;;;;;;;;;5075154;28;20070;-72
2022/11/07 07:15:01;;;;;;;18.45;3.90;;;;;;;;;;5074948;28;20021;-73
2022/11/07 07:17:27;;;;;;;15.30;3.70;;;;;;;;;;5083962;28;20031;-73
2022/11/07 07:19:53;;;;;;;25.25;4.80;;;;;;;;;;5082612;28;20048;-73
2022/11/07 07:22:19;;;;;;;20.95;4.32;;;;;;;;;;5080182;28;20070;-72
2022/11/07 07:24:47;;;;;;;25.17;4.60;;;;;;;;;;5076648;28;20020;-73
2022/11/07 07:27:12;;;;;;;16.05;4.15;;;;;;;;;;5094131;22;20060;-76
2022/11/07 07:29:38;;;;;;;14.55;3.45;;;;;;;;;;5063668;28;20032;-77
2022/11/07 07:32:04;;;;;;;23.25;3.58;;;;;;;;;;5064442;28;20093;-76
2022/11/07 07:34:30;;;;;;;18.10;3.83;;;;;;;;;;5062414;28;20025;-78
2022/11/07 07:36:56;;;;;;;18.90;4.75;;;;;;;;;;5041017;28;20017;-77
2022/11/07 07:39:23;;;;;;;19.65;4.03;;;;;;;;;;5037831;28;20069;-78
2022/11/07 07:41:49;;;;;;;18.65;4.07;;;;;;;;;;5055652;28;20021;-78
2022/11/07 07:44:15;;;;;;;22.48;4.18;;;;;;;;;;5055275;28;20025;-78
2022/11/07 07:46:41;;;;;;;14.63;3.70;;;;;;;;;;5055561;28;20374;-79
2022/11/07 07:49:08;;;;;;;16.48;4.05;;;;;;;;;;5055395;28;20035;-79
2022/11/07 07:51:34;;;;;;;20.90;6.40;;;;;;;;;;5056254;28;20539;-77
2022/11/07 07:54:00;;;;;;;18.00;3.45;;;;;;;;;;5038720;28;20029;-78
2022/11/07 07:56:27;;;;;;;22.45;3.60;;;;;;;;;;5056597;28;20040;-78
2022/11/07 07:58:52;;;;;;;16.83;3.20;;;;;;;;;;5038413;28;20025;-78
2022/11/07 08:01:18;;;;;;;13.50;3.17;;;;;;;;;;5060682;28;20033;-78
2022/11/07 08:03:45;;;;;;;15.02;3.75;;;;;;;;;;5069559;28;20057;-78
2022/11/07 08:06:10;;;;;;;15.73;3.35;;;;;;;;;;5066037;28;20051;-76
2022/11/07 08:08:36;;;;;;;17.67;3.92;;;;;;;;;;5067137;28;20124;-77
2022/11/07 08:11:03;;;;;;;16.48;3.20;;;;;;;;;;5068529;28;20033;-78
2022/11/07 08:13:30;;;;;;;18.85;3.75;;;;;;;;;;5057890;28;20024;-76
2022/11/07 08:15:56;;;;;;;17.67;3.53;;;;;;;;;;5075625;28;20035;-76
2022/11/07 08:18:22;;;;;;;18.52;3.53;;;;;;;;;;5057717;28;20031;-78
2022/11/07 08:20:52;;;;;;;17.35;3.00;;;;;;;;;;5062316;28;20083;-77
2022/11/07 08:23:18;;;;;;;17.38;3.88;;;;;;;;;;5074766;28;20039;-77
2022/11/07 08:25:48;;;;;;;24.23;4.07;;;;;;;;;;5065774;28;20021;-77
2022/11/07 08:28:14;;;;;;;16.38;4.60;;;;;;;;;;5041435;28;20482;-77
2022/11/07 08:30:40;;;;;;;14.00;3.10;;;;;;;;;;5059672;28;20051;-77
2022/11/07 08:33:07;;;;;;;13.77;3.53;;;;;;;;;;5056380;28;20029;-77
2022/11/07 08:35:33;;;;;;;18.73;3.72;;;;;;;;;;5055259;28;20049;-76
2022/11/07 08:37:59;;;;;;;25.00;4.30;;;;;;;;;;5055117;28;20055;-77
2022/11/07 08:40:25;;;;;;;15.10;3.30;;;;;;;;;;5056848;28;20033;-77
2022/11/07 08:42:51;;;;;;;19.23;4.00;;;;;;;;;;5055985;28;20029;-76
2022/11/07 08:45:17;;;;;;;19.80;3.75;;;;;;;;;;5055575;28;20138;-77
2022/11/07 08:47:43;;;;;;;21.27;3.50;;;;;;;;;;5037671;28;20029;-78
2022/11/07 08:50:09;;;;;;;14.27;4.10;;;;;;;;;;5057038;28;20029;-79
2022/11/07 08:52:35;;;;;;;18.38;4.18;;;;;;;;;;5042765;28;20028;-76
2022/11/07 08:55:02;;;;;;;15.38;3.22;;;;;;;;;;5066727;28;20076;-76
2022/11/07 08:57:28;;;;;;;23.92;3.90;;;;;;;;;;5063730;28;20026;-76
2022/11/07 08:59:54;;;;;;;18.08;3.60;;;;;;;;;;5047925;28;20025;-77
2022/11/07 09:02:20;;;;;;;17.88;3.25;;;;;;;;;;5048526;28;20032;-78
2022/11/07 09:04:46;;;;;;;22.77;3.28;;;;;;;;;;5067429;28;20025;-77
2022/11/07 09:07:12;;;;;;;17.55;4.25;;;;;;;;;;5067366;28;20098;-76
2022/11/07 09:09:38;;;;;;;17.33;3.65;;;;;;;;;;5067888;28;20020;-77
2022/11/07 09:12:04;;;;;;;18.23;3.40;;;;;;;;;;5067965;28;20093;-76
2022/11/07 09:14:30;;;;;;;18.63;3.13;;;;;;;;;;5069202;28;20080;-77
2022/11/07 09:16:57;;;;;;;21.35;3.38;;;;;;;;;;5072850;28;20005;-75
2022/11/07 09:19:23;;;;;;;14.80;2.97;;;;;;;;;;5062501;28;20024;-76
2022/11/07 09:21:49;;;;;;;16.92;3.03;;;;;;;;;;5079777;28;20021;-76
2022/11/07 09:24:15;;;;;;;15.20;3.10;;;;;;;;;;5079397;28;20110;-76
2022/11/07 09:26:41;;;;;;;18.30;3.45;;;;;;;;;;5058576;28;20103;-77
2022/11/07 09:29:06;;;;;;;17.13;3.50;;;;;;;;;;5058473;28;20370;-77
2022/11/07 09:31:32;;;;;;;15.18;3.75;;;;;;;;;;5058247;28;20393;-78
2022/11/07 09:33:58;;;;;;;18.40;3.28;;;;;;;;;;5058326;28;20029;-75
2022/11/07 09:36:24;;;;;;;14.98;3.30;;;;;;;;;;5043028;28;20021;-77
2022/11/07 09:38:50;;;;;;;20.60;3.42;;;;;;;;;;5061911;28;20053;-76
2022/11/07 09:41:35;;;;;;;22.35;3.65;;;;;;;;;;5060524;28;20036;-77
2022/11/07 09:44:04;;;;;;;14.23;3.38;;;;;;;;;;5039601;28;20474;-77
2022/11/07 09:46:31;;;;;;;15.10;3.33;;;;;;;;;;5060320;28;20056;-76
2022/11/07 09:49:00;;;;;;;21.58;4.07;;;;;;;;;;5067153;28;20028;-76
2022/11/07 09:51:32;;;;;;;19.38;4.10;;;;;;;;;;5066237;28;20055;-77
2022/11/07 09:54:00;;;;;;;17.83;3.78;;;;;;;;;;5058395;28;20025;-78
2022/11/07 09:56:27;;;;;;;14.45;3.10;;;;;;;;;;5039692;28;20482;-77
2022/11/07 09:58:53;;;;;;;17.08;3.50;;;;;;;;;;5058398;28;20049;-78
2022/11/07 10:01:20;;;;;;;23.30;3.70;;;;;;;;;;5056966;28;20109;-77
2022/11/07 10:03:47;;;;;;;15.32;3.20;;;;;;;;;;5057911;28;20482;-77
2022/11/07 10:06:28;;;;;;;16.98;3.53;;;;;;;;;;5057904;28;20024;-78
2022/11/07 10:09:00;;;;;;;17.92;3.75;;;;;;;;;;5040395;28;20028;-77
2022/11/07 10:11:33;;;;;;;20.30;3.20;;;;;;;;;;5064013;28;20060;-78
2022/11/07 10:14:02;;;;;;;19.63;3.63;;;;;;;;;;5047075;28;20032;-78
2022/11/07 10:16:55;;;;;;;15.57;3.88;;;;;;;;;;5060152;28;20037;-77
2022/11/07 10:19:27;;;;;;;23.23;3.40;;;;;;;;;;5057811;28;20470;-76
2022/11/07 10:22:19;;;;;;;18.48;3.58;;;;;;;;;;5055860;28;20051;-76
2022/11/07 10:24:54;;;;;;;19.85;3.75;;;;;;;;;;5038668;28;20044;-75
2022/11/07 10:27:22;;;;;;;21.15;3.92;;;;;;;;;;5042761;28;20040;-76
2022/11/07 10:29:51;;;;;;;23.67;3.88;;;;;;;;;;5056684;28;20372;-77
2022/11/07 10:32:33;;;;;;;23.67;3.97;;;;;;;;;;5056434;28;20025;-78
2022/11/07 10:35:11;;;;;;;21.40;4.43;;;;;;;;;;5058389;28;20095;-77
2022/11/07 10:37:38;;;;;;;18.80;3.90;;;;;;;;;;5038404;28;20021;-76
2022/11/07 10:40:17;;;;;;;18.75;3.42;;;;;;;;;;5037572;28;20031;-77
2022/11/07 10:42:44;;;;;;;23.10;3.97;;;;;;;;;;5058054;28;20381;-76
2022/11/07 10:45:12;;;;;;;21.67;4.72;;;;;;;;;;5056558;28;20075;-77
2022/11/07 10:47:40;;;;;;;18.30;4.43;;;;;;;;;;5063899;28;20060;-77
2022/11/07 10:50:19;;;;;;;21.17;5.75;;;;;;;;;;5075565;28;20053;-76
2022/11/07 10:52:52;;;;;;;24.38;4.68;;;;;;;;;;5074649;28;20489;-77
2022/11/07 10:55:18;;;;;;;17.10;4.30;;;;;;;;;;5056172;28;20041;-77
2022/11/07 10:57:46;;;;;;;21.42;4.82;;;;;;;;;;5057002;28;20021;-76
2022/11/07 11:00:35;;;;;;;19.40;3.75;;;;;;;;;;5064343;28;20493;-77
2022/11/07 11:03:01;;;;;;;21.30;3.90;;;;;;;;;;5054342;28;20037;-76
2022/11/07 11:05:27;;;;;;;21.92;4.20;;;;;;;;;;5064308;28;20029;-76
2022/11/07 11:07:54;;;;;;;14.20;3.83;;;;;;;;;;5059869;28;20021;-76
2022/11/07 11:10:31;;;;;;;23.60;4.78;;;;;;;;;;5062074;28;20389;-78
2022/11/07 11:12:57;;;;;;;23.90;4.82;;;;;;;;;;5056377;28;20369;-76
2022/11/07 11:15:25;;;;;;;23.27;3.65;;;;;;;;;;5056404;28;20081;-78
2022/11/07 11:17:58;;;;;;;16.30;3.47;;;;;;;;;;5054685;28;20021;-76
2022/11/07 11:20:39;;;;;;;20.73;4.20;;;;;;;;;;5055832;28;20105;-77
2022/11/07 11:23:06;;;;;;;21.83;3.78;;;;;;;;;;5060628;28;20068;-77
2022/11/07 11:25:42;;;;;;;22.95;4.00;;;;;;;;;;5054734;28;20544;-77
2022/11/07 11:28:10;;;;;;;17.17;3.35;;;;;;;;;;5054445;28;20033;-77
2022/11/07 11:30:36;;;;;;;21.42;4.13;;;;;;;;;;5037437;28;20052;-76
2022/11/07 11:33:13;;;;;;;26.83;3.90;;;;;;;;;;5056069;28;20029;-75
2022/11/07 11:35:58;;;;;;;24.27;4.00;;;;;;;;;;5056642;28;20486;-77
2022/11/07 11:38:28;;;;;;;18.95;3.83;;;;;;;;;;5054458;28;20021;-75
2022/11/07 11:40:58;;;;;;;33.30;5.05;;;;;;;;;;5039495;28;20037;-76
2022/11/07 11:43:25;;;;;;;21.70;3.83;;;;;;;;;;5043103;28;20075;-77
2022/11/07 11:45:51;;;;;;;20.83;3.65;;;;;;;;;;5055346;28;20024;-77
2022/11/07 11:48:36;;;;;;;23.65;4.00;;;;;;;;;;5039977;28;20070;-76
2022/11/07 11:51:03;;;;;;;17.20;3.50;;;;;;;;;;5054271;28;20029;-77
2022/11/07 11:53:30;;;;;;;18.13;3.92;;;;;;;;;;5036393;28;20070;-76
2022/11/07 11:56:08;;;;;;;84.43;8.48;;;;;;;;;;5036773;28;20490;-78
2022/11/07 11:58:40;;;;;;;20.63;3.92;;;;;;;;;;5056830;28;20021;-76
2022/11/07 12:01:10;;;;;;;26.95;4.13;;;;;;;;;;5054560;28;20025;-77
2022/11/07 12:03:49;;;;;;;24.17;3.85;;;;;;;;;;5059922;28;20029;-77
2022/11/07 12:06:20;;;;;;;22.25;4.25;;;;;;;;;;5055911;28;20425;-76
2022/11/07 12:08:46;;;;;;;22.45;4.13;;;;;;;;;;5058695;28;20053;-77
2022/11/07 12:11:24;;;;;;;32.28;7.47;;;;;;;;;;5057367;28;20482;-77
2022/11/07 12:13:56;;;;;;;28.38;3.92;;;;;;;;;;5060704;28;20029;-77
2022/11/07 12:16:44;;;;;;;31.63;6.35;;;;;;;;;;5059728;28;20017;-77
2022/11/07 12:19:16;;;;;;;23.83;4.05;;;;;;;;;;5054681;28;20249;-76
2022/11/07 12:22:01;;;;;;;21.92;4.13;;;;;;;;;;5055802;28;20052;-78
2022/11/07 12:24:39;;;;;;;20.80;4.47;;;;;;;;;;5058800;28;20032;-77
2022/11/07 12:27:13;;;;;;;21.67;4.03;;;;;;;;;;5059922;28;20494;-77
2022/11/07 12:29:48;;;;;;;20.85;4.35;;;;;;;;;;5043026;28;20033;-76
2022/11/07 12:32:14;;;;;;;22.52;4.10;;;;;;;;;;5059087;28;20104;-77
2022/11/07 12:35:00;;;;;;;30.23;5.05;;;;;;;;;;5059474;28;20126;-78
2022/11/07 12:37:45;;;;;;;20.17;4.60;;;;;;;;;;5057909;28;20024;-77
2022/11/07 12:40:18;;;;;;;26.90;4.70;;;;;;;;;;5045688;28;20072;-77
2022/11/07 12:42:47;;;;;;;19.67;4.38;;;;;;;;;;5070515;28;20032;-77
2022/11/07 12:45:20;;;;;;;25.42;4.70;;;;;;;;;;5070015;28;20021;-78
2022/11/07 12:47:49;;;;;;;15.40;3.78;;;;;;;;;;5058863;28;20017;-76
2022/11/07 12:50:34;;;;;;;25.05;4.93;;;;;;;;;;5078593;28;20041;-77
2022/11/07 12:53:06;;;;;;;20.52;4.72;;;;;;;;;;5078496;28;20065;-77
2022/11/07 12:55:36;;;;;;;19.35;4.50;;;;;;;;;;5060023;28;20496;-77
2022/11/07 12:58:03;;;;;;;23.27;4.68;;;;;;;;;;5057639;28;20021;-77
2022/11/07 13:00:29;;;;;;;25.13;4.07;;;;;;;;;;5060412;28;20105;-77
2022/11/07 13:03:15;;;;;;;22.25;4.78;;;;;;;;;;5047028;28;20096;-76
2022/11/07 13:05:41;;;;;;;19.73;3.85;;;;;;;;;;5066302;28;21186;-76
2022/11/07 13:08:28;;;;;;;18.08;4.00;;;;;;;;;;5068775;28;20040;-78
2022/11/07 13:11:03;;;;;;;18.92;3.90;;;;;;;;;;5037514;28;20100;-77
2022/11/07 13:13:38;;;;;;;25.02;4.05;;;;;;;;;;5047301;28;20029;-77
2022/11/07 13:16:06;;;;;;;14.88;3.75;;;;;;;;;;5044096;28;20021;-77
2022/11/07 13:18:32;;;;;;;23.50;4.47;;;;;;;;;;5063341;28;20021;-76
2022/11/07 13:20:59;;;;;;;19.95;4.38;;;;;;;;;;5058646;28;20028;-77
2022/11/07 13:23:26;;;;;;;22.85;4.47;;;;;;;;;;5039778;28;20053;-76
2022/11/07 13:25:57;;;;;;;23.10;4.43;;;;;;;;;;5057682;28;20028;-77
2022/11/07 13:28:43;;;;;;;19.23;3.70;;;;;;;;;;5105067;22;20041;-74
2022/11/07 13:31:28;;;;;;;30.20;6.90;;;;;;;;;;5080109;28;20021;-74
2022/11/07 13:33:54;;;;;;;23.55;4.90;;;;;;;;;;5080084;28;20020;-75
2022/11/07 13:36:26;;;;;;;14.88;3.40;;;;;;;;;;5083211;28;20473;-73
2022/11/07 13:38:54;;;;;;;22.25;3.58;;;;;;;;;;5056004;28;20504;-75
2022/11/07 13:41:20;;;;;;;20.42;4.05;;;;;;;;;;5059381;28;20040;-75
2022/11/07 13:43:53;;;;;;;20.38;3.47;;;;;;;;;;5060248;28;20106;-74
2022/11/07 13:46:45;;;;;;;20.52;3.58;;;;;;;;;;5059205;28;20033;-74
2022/11/07 13:49:11;;;;;;;24.13;3.30;;;;;;;;;;5061564;28;20068;-74
2022/11/07 13:51:47;;;;;;;18.98;4.07;;;;;;;;;;5060051;28;20120;-75
2022/11/07 13:54:29;;;;;;;19.52;3.67;;;;;;;;;;5059198;28;20082;-75
2022/11/07 13:57:15;;;;;;;16.15;4.25;;;;;;;;;;5061591;28;20085;-73
2022/11/07 13:59:49;;;;;;;19.23;3.97;;;;;;;;;;5062857;28;20021;-75
2022/11/07 14:02:22;;;;;;;23.85;3.70;;;;;;;;;;5063137;28;20043;-74
2022/11/07 14:04:53;;;;;;;20.67;3.72;;;;;;;;;;5061318;28;20033;-75
2022/11/07 14:07:19;;;;;;;17.02;3.83;;;;;;;;;;5061818;28;20096;-74
2022/11/07 14:09:46;;;;;;;24.85;4.13;;;;;;;;;;5059344;28;20031;-73
2022/11/07 14:12:19;;;;;;;15.48;3.38;;;;;;;;;;5058486;28;20029;-76
2022/11/07 14:14:46;;;;;;;21.60;4.03;;;;;;;;;;5058104;28;20058;-75
2022/11/07 14:17:17;;;;;;;22.67;3.97;;;;;;;;;;5054757;28;20566;-73
2022/11/07 14:19:44;;;;;;;24.63;3.67;;;;;;;;;;5058026;28;20098;-73
2022/11/07 14:22:23;;;;;;;26.25;4.32;;;;;;;;;;5059837;28;20079;-73
2022/11/07 14:24:53;;;;;;;22.95;4.28;;;;;;;;;;5058252;28;20098;-75
2022/11/07 14:27:20;;;;;;;30.15;4.07;;;;;;;;;;5059849;28;20080;-74
2022/11/07 14:29:53;;;;;;;21.85;4.60;;;;;;;;;;5064381;28;20032;-74
2022/11/07 14:32:19;;;;;;;23.30;4.30;;;;;;;;;;5070107;28;20040;-74
2022/11/07 14:34:46;;;;;;;19.17;3.78;;;;;;;;;;5062446;28;20032;-75
2022/11/07 14:37:14;;;;;;;28.75;4.63;;;;;;;;;;5054319;28;20486;-75
2022/11/07 14:39:40;;;;;;;21.92;4.05;;;;;;;;;;5055104;28;20454;-76
2022/11/07 14:42:06;;;;;;;26.75;4.38;;;;;;;;;;5056440;28;20115;-75
2022/11/07 14:44:32;;;;;;;26.13;4.07;;;;;;;;;;5055799;28;20078;-78
2022/11/07 14:46:58;;;;;;;28.00;4.57;;;;;;;;;;5054684;28;20028;-77
2022/11/07 14:49:38;;;;;;;22.58;4.13;;;;;;;;;;5055795;28;20040;-76
2022/11/07 14:52:04;;;;;;;25.70;4.78;;;;;;;;;;5055717;28;20108;-74